EDT,Max TemperatureF,Mean TemperatureF,Min TemperatureF,Max Dew PointF,MeanDew PointF,Min DewpointF,Max Humidity, Mean Humidity, Min Humidity, Max Sea Level PressureIn, Mean Sea Level PressureIn, Min Sea Level PressureIn, Max VisibilityMiles, Mean VisibilityMiles, Min VisibilityMiles, Max Wind SpeedMPH, Mean Wind SpeedMPH, Max Gust SpeedMPH,PrecipitationIn, CloudCover, Events, WindDirDegrees
2012-9-1,77,61,44,57,52,44,100,71,41,30.13,30.03,29.94,10,4,0,12,3,18,0.00,4,Fog,34
2012-9-2,76,57,38,52,44,37,100,68,36,30.16,30.12,30.09,10,8,0,12,2,31,0.00,4,Fog,30
2012-9-3,80,59,37,56,49,36,100,69,37,30.18,30.12,30.06,10,10,10,17,5,20,0.00,1,,208
2012-9-4,75,69,62,66,62,55,100,82,64,30.05,29.93,29.75,10,8,1,24,7,31,1.86,7,Rain,209
2012-9-5,75,64,53,61,59,54,100,79,57,29.89,29.81,29.69,10,6,1,18,4,29,1.21,6,Rain,16
2012-9-6,78,65,52,66,58,52,100,77,54,29.90,29.88,29.81,10,3,0,9,4,10,0.27,5,Fog-Rain,220
2012-9-7,78,63,47,61,52,46,100,72,43,29.96,29.92,29.79,10,4,0,12,2,15,0.00,2,Fog,228
2012-9-8,78,64,50,64,57,46,100,77,54,29.80,29.61,29.44,10,9,2,35,13,48,0.28,5,Rain,221
2012-9-9,65,54,42,48,45,41,100,76,52,29.95,29.85,29.75,10,10,10,13,3,20,0.00,5,,244
2012-9-10,53,44,34,46,42,35,100,82,63,30.17,30.04,29.95,10,10,9,8,3,,0.00,6,,311
2012-9-11,68,50,31,46,38,30,100,67,34,30.28,30.21,30.14,10,5,0,13,4,22,0.00,4,Fog,213
2012-9-12,78,57,35,51,42,34,100,67,33,30.34,30.30,30.26,10,7,0,16,4,21,0.00,2,Fog,235
2012-9-13,79,60,40,54,48,39,100,68,35,30.34,30.29,30.24,10,10,7,15,4,29,0.00,0,,228
2012-9-14,79,61,43,59,51,43,100,73,45,30.24,30.15,30.01,10,6,0,21,5,37,0.21,2,Fog-Rain,212
2012-9-15,59,53,46,54,47,42,96,77,57,30.14,30.09,30.04,10,10,5,13,6,22,T,7,Rain,259
2012-9-16,60,45,29,43,34,28,100,67,33,30.14,30.09,30.05,10,7,0,15,3,20,0.00,2,Fog,226
2012-9-17,74,54,34,55,46,32,100,69,38,30.07,30.02,29.96,10,10,9,15,4,22,0.00,3,,226
2012-9-18,69,56,43,64,57,42,100,89,78,29.95,29.63,29.44,10,7,1,23,9,33,0.65,7,Rain,208
2012-9-19,56,43,29,54,39,30,100,71,41,30.24,29.96,29.66,10,10,8,18,6,26,T,5,,247
2012-9-20,63,45,26,43,32,25,100,72,43,30.25,30.17,30.04,10,8,0,18,5,24,0.00,2,Fog,198
2012-9-21,66,56,46,56,51,43,93,76,58,30.05,29.99,29.93,10,10,7,13,4,17,0.01,5,Rain,191
2012-9-22,68,59,49,56,54,48,93,78,63,29.93,29.79,29.72,10,7,2,29,8,40,0.16,7,Rain,202
2012-9-23,57,47,37,48,40,34,100,70,40,30.10,29.95,29.82,10,10,6,21,7,30,0.01,5,Rain,246
2012-9-24,55,42,29,41,34,27,100,76,51,30.13,30.07,29.99,10,7,0,16,7,23,T,4,Fog,222
2012-9-25,67,53,38,41,39,35,92,65,37,30.04,30.00,29.97,10,10,10,22,11,31,0.00,1,,221
2012-9-26,61,55,49,55,52,39,93,76,59,30.08,29.98,29.95,10,7,1,18,8,25,0.34,7,Rain,230
2012-9-27,56,43,30,47,39,30,100,74,47,30.27,30.18,30.08,10,7,0,10,2,15,0.00,3,Fog,17
2012-9-28,56,43,30,49,43,29,100,83,66,30.25,30.10,30.02,10,10,7,8,1,26,0.06,6,Rain,221
2012-9-29,52,49,46,48,47,46,100,92,83,30.01,29.97,29.93,10,8,4,9,3,14,0.10,8,Rain,21
2012-9-30,50,48,46,48,47,46,100,93,86,29.93,29.83,29.65,10,7,2,9,3,15,0.25,8,Rain,33